createdAt,value
2022-08-09T00:00:11.991Z,24.70
2022-08-09T00:02:42.898Z,24.57
2022-08-09T00:06:17.445Z,24.71
2022-08-09T00:08:10.150Z,24.60
2022-08-09T00:10:39.321Z,24.65
2022-08-09T00:13:16.738Z,24.57
2022-08-09T00:15:58.721Z,24.38
2022-08-09T00:18:27.315Z,24.41
2022-08-09T00:20:55.908Z,24.46
2022-08-09T00:23:55.409Z,24.27
2022-08-09T00:26:11.032Z,24.23
2022-08-09T00:28:39.719Z,24.12
2022-08-09T00:31:55.820Z,24.12
2022-08-09T00:33:56.016Z,23.98
2022-08-09T00:36:29.752Z,23.83
2022-08-09T00:38:58.109Z,23.98
2022-08-09T00:44:14.814Z,23.97
2022-08-09T00:44:26.029Z,23.92
2022-08-09T00:46:57.830Z,24.01
2022-08-09T00:49:33.785Z,23.95
2022-08-09T00:52:05.587Z,23.97
2022-08-09T00:54:36.133Z,23.86
2022-08-09T00:57:08.770Z,23.86
2022-08-09T00:59:41.502Z,23.72
2022-08-09T01:02:18.162Z,23.81
2022-08-09T01:05:51.951Z,23.74
2022-08-09T01:08:26.667Z,23.71
2022-08-09T01:11:03.707Z,23.58
2022-08-09T01:14:00.186Z,23.55
2022-08-09T01:16:47.070Z,23.60
2022-08-09T01:20:01.753Z,23.69
2022-08-09T01:24:00.994Z,23.81
2022-08-09T01:26:11.025Z,23.78
2022-08-09T01:28:46.030Z,23.72
2022-08-09T01:32:30.207Z,23.75
2022-08-09T01:34:08.922Z,23.74
2022-08-09T01:36:36.989Z,23.67
2022-08-09T01:39:06.957Z,23.58
2022-08-09T01:41:36.450Z,23.60
2022-08-09T01:44:22.765Z,23.75
2022-08-09T01:46:53.091Z,23.92
2022-08-09T01:49:24.109Z,23.97
2022-08-09T01:51:56.530Z,23.94
2022-08-09T01:54:32.934Z,24.03
2022-08-09T01:57:08.137Z,24.04
2022-08-09T01:59:50.863Z,23.92
2022-08-09T02:02:31.163Z,24.02
2022-08-09T02:05:05.639Z,23.88
2022-08-09T02:08:38.673Z,23.67
2022-08-09T02:10:42.889Z,23.62
2022-08-09T02:13:20.003Z,23.53
2022-08-09T02:15:51.591Z,23.49
2022-08-09T02:18:23.756Z,23.55
2022-08-09T02:20:58.849Z,23.47
2022-08-09T02:23:43.174Z,23.48
2022-08-09T02:26:27.221Z,23.34
2022-08-09T02:29:11.476Z,23.29
2022-08-09T02:31:43.762Z,23.11
2022-08-09T02:34:40.140Z,23.00
2022-08-09T02:37:12.227Z,22.94
2022-08-09T02:39:45.102Z,23.01
2022-08-09T02:42:28.012Z,22.99
2022-08-09T02:45:02.042Z,23.11
2022-08-09T02:47:33.699Z,23.11
2022-08-09T02:50:20.987Z,23.11
2022-08-09T02:52:55.597Z,23.14
2022-08-09T02:55:46.372Z,23.31
2022-08-09T02:58:32.686Z,23.26
2022-08-09T03:01:08.168Z,23.48
2022-08-09T03:04:18.164Z,23.19
2022-08-09T03:06:28.174Z,23.05
2022-08-09T03:08:57.397Z,22.98
2022-08-09T03:11:29.682Z,23.09
2022-08-09T03:14:14.361Z,23.10
2022-08-09T03:16:47.588Z,22.99
2022-08-09T03:19:52.449Z,23.06
2022-08-09T03:22:12.394Z,23.07
2022-08-09T03:27:45.397Z,22.84
2022-08-09T03:30:14.313Z,22.68
2022-08-09T03:32:58.883Z,22.72
2022-08-09T03:36:11.408Z,22.77
2022-08-09T03:38:28.491Z,22.93
2022-08-09T03:40:56.383Z,22.94
2022-08-09T03:43:23.390Z,22.96
2022-08-09T03:46:04.727Z,22.99
2022-08-09T03:48:51.020Z,22.98
2022-08-09T03:51:56.665Z,23.13
2022-08-09T03:54:11.431Z,23.44
2022-08-09T03:56:41.234Z,23.18
2022-08-09T03:59:17.155Z,23.23
2022-08-09T04:01:59.181Z,23.49
2022-08-09T04:04:36.277Z,23.40
2022-08-09T04:07:06.711Z,23.44
2022-08-09T04:09:41.708Z,23.43
2022-08-09T04:12:30.577Z,23.91
2022-08-09T04:15:11.448Z,24.18
2022-08-09T04:17:42.269Z,24.25
2022-08-09T04:20:12.289Z,24.26
2022-08-09T04:22:41.387Z,24.06
2022-08-09T04:25:11.709Z,24.21
2022-08-09T04:27:48.823Z,24.47
2022-08-09T04:30:20.669Z,24.44
2022-08-09T04:32:47.918Z,24.56
2022-08-09T04:35:15.475Z,24.46
2022-08-09T04:37:46.323Z,24.78
2022-08-09T04:40:19.106Z,24.81
2022-08-09T04:42:48.541Z,24.99
2022-08-09T04:45:20.547Z,25.04
2022-08-09T04:48:00.137Z,25.19
2022-08-09T04:50:33.575Z,24.92
2022-08-09T04:53:02.398Z,24.84
2022-08-09T04:55:38.949Z,25.03
2022-08-09T04:58:17.799Z,24.91
2022-08-09T05:00:45.091Z,24.88
2022-08-09T05:03:39.987Z,24.84
2022-08-09T05:06:07.052Z,24.85
2022-08-09T05:08:35.048Z,25.08
2022-08-09T05:11:02.888Z,25.13
2022-08-09T05:13:32.872Z,25.22
2022-08-09T05:16:01.450Z,25.45
2022-08-09T05:18:39.414Z,25.35
2022-08-09T05:21:22.888Z,25.48
2022-08-09T05:23:58.378Z,25.73
2022-08-09T05:26:37.032Z,25.87
2022-08-09T05:29:17.317Z,25.87
2022-08-09T05:31:50.743Z,26.00
2022-08-09T05:34:26.065Z,26.52
2022-08-09T05:37:01.660Z,26.37
2022-08-09T05:39:36.413Z,26.32
2022-08-09T05:42:09.929Z,26.74
2022-08-09T05:44:45.176Z,27.15
2022-08-09T05:47:17.380Z,27.27
2022-08-09T05:50:30.292Z,27.66
2022-08-09T05:52:31.816Z,27.76
2022-08-09T05:55:03.149Z,27.72
2022-08-09T05:57:51.356Z,28.03
2022-08-09T06:00:29.674Z,28.43
2022-08-09T06:03:01.928Z,28.71
2022-08-09T06:05:54.782Z,28.93
2022-08-09T06:08:19.873Z,29.07
2022-08-09T06:10:55.744Z,29.25
2022-08-09T06:13:23.396Z,29.18
2022-08-09T06:15:52.266Z,29.57
2022-08-09T06:18:25.294Z,29.69
2022-08-09T06:20:57.946Z,29.86
2022-08-09T06:23:59.021Z,30.49
2022-08-09T06:26:20.560Z,30.07
2022-08-09T06:29:00.004Z,30.23
2022-08-09T06:31:40.599Z,30.18
2022-08-09T06:34:18.122Z,30.45
2022-08-09T06:36:45.309Z,30.57
2022-08-09T06:39:12.940Z,30.52
2022-08-09T06:42:08.841Z,31.09
2022-08-09T06:44:31.071Z,31.26
2022-08-09T06:46:58.221Z,31.24
2022-08-09T06:49:44.412Z,31.31
2022-08-09T06:52:15.848Z,31.10
2022-08-09T06:54:43.665Z,31.36
2022-08-09T06:57:12.147Z,31.33
2022-08-09T07:00:50.100Z,31.37
2022-08-09T07:02:30.996Z,31.18
2022-08-09T07:05:00.146Z,31.44
2022-08-09T07:07:59.136Z,31.33
2022-08-09T07:10:22.504Z,31.75
2022-08-09T07:12:57.055Z,32.10
2022-08-09T07:16:35.324Z,32.21
2022-08-09T07:18:14.344Z,32.26
2022-08-09T07:20:43.333Z,32.23
2022-08-09T07:23:19.594Z,32.64
2022-08-09T07:25:52.203Z,32.76
2022-08-09T07:28:26.404Z,32.72
2022-08-09T07:30:55.781Z,33.30
2022-08-09T07:33:23.151Z,33.02
2022-08-09T07:35:53.843Z,33.05
2022-08-09T07:38:23.490Z,33.00
2022-08-09T07:41:10.034Z,33.48
2022-08-09T07:43:41.076Z,33.78
2022-08-09T07:46:19.069Z,33.52
2022-08-09T07:48:59.607Z,33.69
2022-08-09T07:52:04.352Z,34.53
2022-08-09T07:54:27.611Z,35.10
2022-08-09T07:56:55.362Z,35.05
2022-08-09T07:59:34.871Z,34.72
2022-08-09T08:02:09.551Z,35.09
2022-08-09T08:04:37.349Z,34.99
2022-08-09T08:07:15.155Z,35.16
2022-08-09T08:10:07.527Z,35.83
2022-08-09T08:12:42.893Z,36.06
2022-08-09T08:15:23.226Z,36.09
2022-08-09T08:17:57.981Z,36.34
2022-08-09T08:20:30.647Z,36.35
2022-08-09T08:23:06.773Z,36.54
2022-08-09T08:25:48.302Z,36.40
2022-08-09T08:28:32.203Z,36.80
2022-08-09T08:31:08.836Z,37.18
2022-08-09T08:33:52.451Z,37.27
2022-08-09T08:36:28.633Z,36.38
2022-08-09T08:38:56.988Z,35.54
2022-08-09T08:41:24.742Z,35.39
2022-08-09T08:44:09.641Z,35.33
2022-08-09T08:47:02.975Z,35.64
2022-08-09T08:49:38.488Z,35.52
2022-08-09T08:52:48.457Z,35.04
2022-08-09T08:55:05.607Z,35.60
2022-08-09T08:57:34.831Z,35.69
2022-08-09T09:00:12.760Z,35.90
2022-08-09T09:02:52.526Z,36.78
2022-08-09T09:05:42.086Z,37.23
2022-08-09T09:08:31.098Z,37.53
2022-08-09T09:11:02.901Z,37.16
2022-08-09T09:13:41.870Z,37.56
2022-08-09T09:16:29.870Z,38.31
2022-08-09T09:19:22.785Z,38.53
2022-08-09T09:22:07.993Z,38.67
2022-08-09T09:24:46.105Z,39.02
2022-08-09T09:28:03.808Z,38.57
2022-08-09T09:30:40.013Z,37.26
2022-08-09T09:33:02.065Z,37.15
2022-08-09T09:36:01.921Z,37.94
2022-08-09T09:38:50.963Z,37.67
2022-08-09T09:41:23.697Z,37.56
2022-08-09T09:44:12.055Z,36.91
2022-08-09T09:46:45.986Z,37.74
2022-08-09T09:49:49.759Z,38.13
2022-08-09T09:52:16.589Z,38.99
2022-08-09T09:55:32.280Z,38.17
2022-08-09T09:58:17.948Z,38.16
2022-08-09T10:00:55.018Z,38.52
2022-08-09T10:03:57.470Z,39.84
2022-08-09T10:06:32.314Z,39.30
2022-08-09T10:09:02.702Z,38.71
2022-08-09T10:12:00.307Z,38.77
2022-08-09T10:14:33.126Z,39.20
2022-08-09T10:17:24.418Z,39.45
2022-08-09T10:19:59.311Z,38.04
2022-08-09T10:22:39.187Z,38.85
2022-08-09T10:25:11.827Z,38.49
2022-08-09T10:27:45.401Z,39.97
2022-08-09T10:32:03.793Z,40.11
2022-08-09T10:34:04.476Z,39.48
2022-08-09T10:36:00.922Z,39.50
2022-08-09T10:38:54.620Z,39.66
2022-08-09T10:41:18.749Z,39.97
2022-08-09T10:43:59.287Z,39.79
2022-08-09T10:46:54.758Z,39.77
2022-08-09T10:49:50.804Z,40.02
2022-08-09T10:52:27.418Z,40.27
2022-08-09T10:54:55.671Z,39.45
2022-08-09T10:57:36.392Z,39.70
2022-08-09T11:00:37.151Z,38.70
2022-08-09T11:03:51.361Z,38.41
2022-08-09T11:06:23.186Z,38.66
2022-08-09T11:08:53.170Z,38.65
2022-08-09T11:11:23.396Z,38.37
2022-08-09T11:14:28.201Z,37.98
2022-08-09T11:16:57.175Z,37.71
2022-08-09T11:20:19.683Z,37.78
2022-08-09T11:22:55.407Z,38.95
2022-08-09T11:25:45.362Z,38.20
2022-08-09T11:28:38.533Z,38.50
2022-08-09T11:31:43.385Z,37.41
2022-08-09T11:34:42.872Z,37.80
2022-08-09T11:37:18.172Z,37.80
2022-08-09T11:40:05.877Z,36.83
2022-08-09T11:42:41.055Z,37.36
2022-08-09T11:45:42.674Z,37.53
2022-08-09T11:48:26.188Z,37.93
2022-08-09T11:52:48.640Z,37.84
2022-08-09T11:54:01.800Z,36.87
2022-08-09T11:56:41.989Z,37.32
2022-08-09T11:59:30.579Z,37.03
2022-08-09T12:02:18.456Z,38.00
2022-08-09T12:04:57.933Z,38.58
2022-08-09T12:07:41.493Z,38.12
2022-08-09T12:10:14.450Z,37.07
2022-08-09T12:12:57.915Z,36.77
2022-08-09T12:15:49.778Z,37.61
2022-08-09T12:18:30.342Z,36.70
2022-08-09T12:21:00.732Z,36.80
2022-08-09T12:23:56.662Z,38.69
2022-08-09T12:26:25.896Z,37.61
2022-08-09T12:29:10.641Z,36.07
2022-08-09T12:32:01.763Z,35.68
2022-08-09T12:34:38.906Z,37.09
2022-08-09T12:37:21.931Z,37.03
2022-08-09T12:40:23.031Z,36.56
2022-08-09T12:42:51.030Z,36.10
2022-08-09T12:45:34.298Z,37.98
2022-08-09T12:48:20.061Z,37.30
2022-08-09T12:50:57.920Z,36.66
2022-08-09T12:53:35.031Z,37.59
2022-08-09T12:56:39.582Z,38.14
2022-08-09T12:59:14.283Z,37.09
2022-08-09T13:01:49.901Z,37.02
2022-08-09T13:04:37.174Z,36.77
2022-08-09T13:07:19.933Z,36.42
2022-08-09T13:10:02.948Z,36.07
2022-08-09T13:12:30.806Z,36.21
2022-08-09T13:15:09.798Z,36.25
2022-08-09T13:18:02.860Z,36.80
2022-08-09T13:20:37.756Z,36.26
2022-08-09T13:24:53.838Z,36.25
2022-08-09T13:26:37.252Z,36.60
2022-08-09T13:29:28.635Z,36.89
2022-08-09T13:32:20.387Z,36.21
2022-08-09T13:34:54.767Z,35.94
2022-08-09T13:37:51.138Z,35.95
2022-08-09T13:41:45.824Z,35.52
2022-08-09T13:42:57.978Z,35.78
2022-08-09T13:45:32.616Z,35.73
2022-08-09T13:48:12.107Z,35.68
2022-08-09T13:50:42.499Z,35.41
2022-08-09T13:53:10.406Z,34.65
2022-08-09T13:55:37.921Z,34.94
2022-08-09T13:58:07.990Z,34.88
2022-08-09T14:00:50.393Z,35.18
2022-08-09T14:04:01.229Z,35.13
2022-08-09T14:06:14.769Z,35.04
2022-08-09T14:08:47.071Z,35.17
2022-08-09T14:11:16.287Z,34.94
2022-08-09T14:14:22.538Z,34.96
2022-08-09T14:16:31.175Z,35.36
2022-08-09T14:18:59.513Z,36.19
2022-08-09T14:21:29.226Z,35.48
2022-08-09T14:23:57.487Z,35.39
2022-08-09T14:26:32.917Z,35.60
2022-08-09T14:29:08.302Z,35.74
2022-08-09T14:31:53.386Z,36.20
2022-08-09T14:34:31.645Z,35.88
2022-08-09T14:37:06.306Z,35.57
2022-08-09T14:39:39.839Z,34.83
2022-08-09T14:42:08.049Z,35.30
2022-08-09T14:44:48.793Z,35.74
2022-08-09T14:47:27.413Z,35.12
2022-08-09T14:50:09.234Z,35.27
2022-08-09T14:52:38.161Z,35.52
2022-08-09T14:55:07.042Z,36.11
2022-08-09T14:57:43.101Z,36.09
2022-08-09T15:00:11.117Z,35.51
2022-08-09T15:02:39.214Z,35.69
2022-08-09T15:05:07.646Z,35.62
2022-08-09T15:07:35.449Z,35.47
2022-08-09T15:10:11.048Z,34.84
2022-08-09T15:12:44.989Z,35.13
2022-08-09T15:15:13.093Z,35.68
2022-08-09T15:17:42.676Z,35.29
2022-08-09T15:20:15.348Z,35.00
2022-08-09T15:24:02.246Z,35.12
2022-08-09T15:25:55.611Z,34.78
2022-08-09T15:28:27.437Z,34.64
2022-08-09T15:31:10.200Z,34.66
2022-08-09T15:34:32.769Z,34.45
2022-08-09T15:36:30.514Z,34.12
2022-08-09T15:39:00.896Z,34.27
2022-08-09T15:41:32.283Z,34.43
2022-08-09T15:44:01.790Z,34.55
2022-08-09T15:46:34.260Z,34.52
2022-08-09T15:49:22.403Z,34.24
2022-08-09T15:52:04.378Z,34.36
2022-08-09T15:54:48.362Z,33.98
2022-08-09T15:57:35.162Z,34.12
2022-08-09T16:00:24.637Z,33.70
2022-08-09T16:02:54.815Z,33.26
2022-08-09T16:05:26.693Z,33.41
2022-08-09T16:08:24.657Z,33.40
2022-08-09T16:10:59.525Z,33.46
2022-08-09T16:14:06.333Z,33.49
2022-08-09T16:16:18.352Z,33.11
2022-08-09T16:18:46.830Z,33.08
2022-08-09T16:21:17.571Z,33.06
2022-08-09T16:23:54.782Z,32.96
2022-08-09T16:26:35.629Z,32.90
2022-08-09T16:29:12.542Z,33.04
2022-08-09T16:32:20.065Z,32.96
2022-08-09T16:34:54.400Z,32.97
2022-08-09T16:37:54.627Z,33.16
2022-08-09T16:40:11.101Z,33.03
2022-08-09T16:42:44.813Z,33.12
2022-08-09T16:45:14.624Z,33.04
2022-08-09T16:48:38.781Z,32.65
2022-08-09T16:50:34.120Z,32.50
2022-08-09T16:53:02.331Z,32.83
2022-08-09T16:55:59.677Z,32.78
2022-08-09T16:58:18.618Z,32.84
2022-08-09T17:00:46.467Z,32.69
2022-08-09T17:03:20.873Z,32.68
2022-08-09T17:06:08.549Z,32.58
2022-08-09T17:09:02.871Z,32.55
2022-08-09T17:11:41.137Z,32.22
2022-08-09T17:14:26.139Z,32.14
2022-08-09T17:17:01.454Z,31.83
2022-08-09T17:20:05.209Z,32.02
2022-08-09T17:22:24.027Z,31.73
2022-08-09T17:25:03.603Z,31.57
2022-08-09T17:27:38.273Z,31.22
2022-08-09T17:30:07.193Z,31.37
2022-08-09T17:32:44.365Z,31.22
2022-08-09T17:35:14.219Z,31.00
2022-08-09T17:38:02.176Z,30.56
2022-08-09T17:40:31.844Z,30.17
2022-08-09T17:43:10.659Z,29.59
2022-08-09T17:46:05.818Z,29.50
2022-08-09T17:48:38.648Z,29.42
2022-08-09T17:51:19.513Z,29.42
2022-08-09T17:53:54.554Z,29.40
2022-08-09T17:56:35.629Z,29.06
2022-08-09T17:59:09.602Z,28.78
2022-08-09T18:02:03.538Z,28.83
2022-08-09T18:04:26.131Z,28.76
2022-08-09T18:06:55.299Z,28.58
2022-08-09T18:09:40.971Z,28.33
2022-08-09T18:12:17.663Z,28.10
2022-08-09T18:14:53.415Z,28.00
2022-08-09T18:17:27.698Z,28.01
2022-08-09T18:20:56.512Z,27.88
2022-08-09T18:22:57.849Z,27.89
2022-08-09T18:25:53.537Z,27.97
2022-08-09T18:30:35.675Z,27.77
2022-08-09T18:31:06.020Z,27.78
2022-08-09T18:33:34.525Z,27.75
2022-08-09T18:36:01.676Z,27.88
2022-08-09T18:38:29.040Z,27.81
2022-08-09T18:40:56.373Z,27.75
2022-08-09T18:43:25.037Z,27.55
2022-08-09T18:46:50.150Z,27.42
2022-08-09T18:48:42.542Z,27.48
2022-08-09T18:51:09.940Z,27.57
2022-08-09T18:54:01.020Z,27.52
2022-08-09T18:56:28.240Z,27.45
2022-08-09T18:59:01.239Z,27.40
2022-08-09T19:01:28.604Z,27.37
2022-08-09T19:04:10.630Z,27.45
2022-08-09T19:06:38.669Z,27.36
2022-08-09T19:09:07.675Z,27.42
2022-08-09T19:11:41.681Z,27.34
2022-08-09T19:14:08.778Z,27.22
2022-08-09T19:16:36.273Z,27.27
2022-08-09T19:19:21.280Z,27.27
2022-08-09T19:22:05.140Z,27.19
2022-08-09T19:24:39.369Z,27.14
2022-08-09T19:27:21.894Z,27.28
2022-08-09T19:30:21.082Z,27.33
2022-08-09T19:32:36.966Z,27.10
2022-08-09T19:35:05.522Z,27.08
2022-08-09T19:37:54.342Z,27.06
2022-08-09T19:40:21.320Z,27.02
2022-08-09T19:42:49.802Z,26.98
2022-08-09T19:45:17.742Z,26.94
2022-08-09T19:47:45.749Z,26.90
2022-08-09T19:50:50.331Z,27.18
2022-08-09T19:53:04.250Z,27.07
2022-08-09T19:56:02.294Z,27.12
2022-08-09T19:58:29.967Z,27.05
2022-08-09T20:00:58.238Z,27.12
2022-08-09T20:04:09.656Z,27.12
2022-08-09T20:06:23.085Z,27.09
2022-08-09T20:08:56.745Z,26.99
2022-08-09T20:11:42.903Z,26.78
2022-08-09T20:14:16.677Z,27.00
2022-08-09T20:16:53.430Z,26.79
2022-08-09T20:19:42.966Z,26.72
2022-08-09T20:22:09.734Z,26.77
2022-08-09T20:24:37.217Z,26.82
2022-08-09T20:27:08.910Z,26.72
2022-08-09T20:29:39.363Z,26.89
2022-08-09T20:32:33.328Z,26.68
2022-08-09T20:34:56.231Z,26.60
2022-08-09T20:37:23.592Z,26.53
2022-08-09T20:40:16.080Z,26.39
2022-08-09T20:42:38.032Z,26.46
2022-08-09T20:45:59.897Z,26.34
2022-08-09T20:47:54.951Z,26.48
2022-08-09T20:50:47.746Z,26.61
2022-08-09T20:53:35.756Z,26.48
2022-08-09T20:56:02.410Z,26.64
2022-08-09T20:58:32.236Z,26.66
2022-08-09T21:01:32.490Z,26.52
2022-08-09T21:04:08.981Z,26.74
2022-08-09T21:06:36.670Z,26.70
2022-08-09T21:09:11.865Z,26.75
2022-08-09T21:14:30.843Z,26.85
2022-08-09T21:17:00.507Z,26.89
2022-08-09T21:20:18.199Z,27.02
2022-08-09T21:22:37.735Z,27.14
2022-08-09T21:25:21.138Z,27.11
2022-08-09T21:27:52.479Z,27.23
2022-08-09T21:30:28.536Z,27.07
2022-08-09T21:32:57.134Z,27.03
2022-08-09T21:35:24.324Z,27.01
2022-08-09T21:37:59.187Z,26.75
2022-08-09T21:40:30.775Z,26.64
2022-08-09T21:43:06.085Z,26.54
2022-08-09T21:45:39.063Z,26.48
2022-08-09T21:48:07.610Z,26.42
2022-08-09T21:50:38.689Z,26.23
2022-08-09T21:53:19.909Z,26.04
2022-08-09T21:55:56.559Z,25.76
2022-08-09T21:58:30.958Z,25.73
2022-08-09T22:00:58.614Z,25.47
2022-08-09T22:03:26.245Z,25.67
2022-08-09T22:05:55.659Z,25.63
2022-08-09T22:08:28.573Z,25.44
2022-08-09T22:11:50.465Z,25.40
2022-08-09T22:13:43.797Z,25.35
2022-08-09T22:16:12.136Z,25.11
2022-08-09T22:18:54.484Z,24.96
2022-08-09T22:21:24.811Z,24.87
2022-08-09T22:23:59.689Z,24.80
2022-08-09T22:26:35.223Z,24.68
2022-08-09T22:29:07.427Z,24.57
2022-08-09T22:31:37.166Z,24.64
2022-08-09T22:34:14.595Z,24.56
2022-08-09T22:36:46.101Z,24.60
2022-08-09T22:39:46.824Z,24.62
2022-08-09T22:42:16.142Z,24.49
2022-08-09T22:45:11.508Z,24.41
2022-08-09T22:48:13.313Z,24.26
2022-08-09T22:50:24.234Z,24.25
2022-08-09T22:52:54.842Z,24.33
2022-08-09T22:55:33.771Z,24.28
2022-08-09T22:58:07.527Z,24.19
2022-08-09T23:00:36.264Z,24.20
2022-08-09T23:03:04.452Z,24.10
2022-08-09T23:05:39.850Z,24.08
2022-08-09T23:08:31.672Z,23.95
2022-08-09T23:10:59.126Z,23.89
2022-08-09T23:13:26.019Z,23.90
2022-08-09T23:16:03.297Z,23.73
2022-08-09T23:18:31.268Z,23.80
2022-08-09T23:20:58.273Z,23.87
2022-08-09T23:23:25.346Z,23.75
2022-08-09T23:25:52.391Z,23.76
2022-08-09T23:28:19.737Z,23.80
2022-08-09T23:30:51.881Z,23.56
2022-08-09T23:33:23.325Z,23.49
2022-08-09T23:36:06.042Z,23.65
2022-08-09T23:38:48.155Z,23.44
2022-08-09T23:41:27.802Z,23.45
2022-08-09T23:43:55.404Z,23.42
2022-08-09T23:46:22.470Z,23.45
2022-08-09T23:48:50.563Z,23.50
2022-08-09T23:51:17.756Z,23.47
2022-08-09T23:53:44.710Z,23.45
2022-08-09T23:56:14.326Z,23.36
2022-08-09T23:58:41.632Z,23.37
